sensor_id;sensor_type;location;lat;lon;timestamp;pressure;altitude;pressure_sealevel;temperature;humidity
76732;BME280;65656;51.130;13.658;2023-04-01T00:01:37;97571.25;;;7.99;98.37
76732;BME280;65656;51.130;13.658;2023-04-01T00:05:40;97575.88;;;7.99;97.69
76732;BME280;65656;51.130;13.658;2023-04-01T00:09:42;97563.28;;;8.08;97.26
76732;BME280;65656;51.130;13.658;2023-04-01T00:13:43;97561.72;;;8.02;96.96
76732;BME280;65656;51.130;13.658;2023-04-01T00:17:45;97565.78;;;8.09;96.88
76732;BME280;65656;51.130;13.658;2023-04-01T00:21:48;97564.31;;;8.22;95.63
76732;BME280;65656;51.130;13.658;2023-04-01T00:25:49;97567.91;;;8.18;95.61
76732;BME280;65656;51.130;13.658;2023-04-01T00:29:51;97571.97;;;8.20;95.04
76732;BME280;65656;51.130;13.658;2023-04-01T00:33:52;97562.13;;;8.24;95.14
76732;BME280;65656;51.130;13.658;2023-04-01T00:37:55;97562.94;;;8.30;95.89
76732;BME280;65656;51.130;13.658;2023-04-01T00:41:57;97562.69;;;8.21;97.27
76732;BME280;65656;51.130;13.658;2023-04-01T00:45:58;97563.28;;;8.08;97.63
76732;BME280;65656;51.130;13.658;2023-04-01T00:50:00;97558.13;;;8.12;97.17
76732;BME280;65656;51.130;13.658;2023-04-01T00:54:04;97566.59;;;8.10;97.54
76732;BME280;65656;51.130;13.658;2023-04-01T00:58:09;97557.28;;;8.11;97.62
76732;BME280;65656;51.130;13.658;2023-04-01T01:02:14;97564.69;;;8.05;98.79
76732;BME280;65656;51.130;13.658;2023-04-01T01:06:26;97563.56;;;8.06;97.32
76732;BME280;65656;51.130;13.658;2023-04-01T01:10:34;97557.31;;;8.01;98.13
76732;BME280;65656;51.130;13.658;2023-04-01T01:14:45;97573.66;;;8.11;96.28
76732;BME280;65656;51.130;13.658;2023-04-01T01:18:53;97559.16;;;8.16;95.56
76732;BME280;65656;51.130;13.658;2023-04-01T01:23:36;97560.50;;;8.23;95.98
76732;BME280;65656;51.130;13.658;2023-04-01T01:27:49;97567.59;;;8.24;95.17
76732;BME280;65656;51.130;13.658;2023-04-01T01:32:03;97559.97;;;8.21;95.23
76732;BME280;65656;51.130;13.658;2023-04-01T01:36:12;97563.28;;;8.18;95.82
76732;BME280;65656;51.130;13.658;2023-04-01T01:40:15;97563.28;;;8.18;95.20
76732;BME280;65656;51.130;13.658;2023-04-01T01:44:17;97559.44;;;8.19;94.75
76732;BME280;65656;51.130;13.658;2023-04-01T01:48:19;97558.88;;;8.22;95.52
76732;BME280;65656;51.130;13.658;2023-04-01T01:52:23;97562.69;;;8.21;93.94
76732;BME280;65656;51.130;13.658;2023-04-01T01:56:27;97568.09;;;8.31;93.29
76732;BME280;65656;51.130;13.658;2023-04-01T02:00:30;97554.50;;;8.26;93.20
76732;BME280;65656;51.130;13.658;2023-04-01T02:04:32;97559.66;;;8.28;93.76
76732;BME280;65656;51.130;13.658;2023-04-01T02:08:39;97559.97;;;8.26;93.76
76732;BME280;65656;51.130;13.658;2023-04-01T02:12:45;97571.97;;;8.20;94.59
76732;BME280;65656;51.130;13.658;2023-04-01T02:16:51;97565.94;;;8.23;93.72
76732;BME280;65656;51.130;13.658;2023-04-01T02:20:56;97563.78;;;8.25;93.02
76732;BME280;65656;51.130;13.658;2023-04-01T02:25:03;97570.88;;;8.26;92.84
76732;BME280;65656;51.130;13.658;2023-04-01T02:29:08;97575.25;;;8.22;92.83
76732;BME280;65656;51.130;13.658;2023-04-01T02:33:10;97573.84;;;8.25;92.70
76732;BME280;65656;51.130;13.658;2023-04-01T02:37:13;97571.47;;;8.18;94.50
76732;BME280;65656;51.130;13.658;2023-04-01T02:41:16;97581.50;;;8.28;92.36
76732;BME280;65656;51.130;13.658;2023-04-01T02:45:18;97574.66;;;8.30;92.21
76732;BME280;65656;51.130;13.658;2023-04-01T02:49:20;97586.41;;;8.36;92.61
76732;BME280;65656;51.130;13.658;2023-04-01T02:53:21;97587.75;;;8.33;91.78
76732;BME280;65656;51.130;13.658;2023-04-01T02:57:24;97577.97;;;8.27;92.04
76732;BME280;65656;51.130;13.658;2023-04-01T03:01:26;97584.19;;;8.38;91.87
76732;BME280;65656;51.130;13.658;2023-04-01T03:05:28;97591.56;;;8.32;91.75
76732;BME280;65656;51.130;13.658;2023-04-01T03:09:29;97591.56;;;8.32;90.98
76732;BME280;65656;51.130;13.658;2023-04-01T03:13:32;97597.00;;;8.32;91.61
76732;BME280;65656;51.130;13.658;2023-04-01T03:17:34;97594.56;;;8.31;91.18
76732;BME280;65656;51.130;13.658;2023-04-01T03:21:35;97598.13;;;8.36;91.56
76732;BME280;65656;51.130;13.658;2023-04-01T03:25:37;97592.13;;;8.29;91.32
76732;BME280;65656;51.130;13.658;2023-04-01T03:29:39;97599.22;;;8.30;91.66
76732;BME280;65656;51.130;13.658;2023-04-01T03:33:41;97600.88;;;8.21;91.75
76732;BME280;65656;51.130;13.658;2023-04-01T03:37:43;97607.44;;;8.25;91.05
76732;BME280;65656;51.130;13.658;2023-04-01T03:41:44;97601.13;;;8.25;90.85
76732;BME280;65656;51.130;13.658;2023-04-01T03:45:49;97600.31;;;8.29;90.88
76732;BME280;65656;51.130;13.658;2023-04-01T03:49:51;97603.03;;;8.29;90.96
76732;BME280;65656;51.130;13.658;2023-04-01T03:53:53;97611.53;;;8.23;90.52
76732;BME280;65656;51.130;13.658;2023-04-01T03:57:54;97612.31;;;8.28;90.64
76732;BME280;65656;51.130;13.658;2023-04-01T04:01:57;97617.25;;;8.26;90.15
76732;BME280;65656;51.130;13.658;2023-04-01T04:05:59;97619.97;;;8.26;90.39
76732;BME280;65656;51.130;13.658;2023-04-01T04:10:00;97619.69;;;8.23;90.64
76732;BME280;65656;51.130;13.658;2023-04-01T04:14:02;97620.53;;;8.23;91.29
76732;BME280;65656;51.130;13.658;2023-04-01T04:18:05;97625.97;;;8.23;89.99
76732;BME280;65656;51.130;13.658;2023-04-01T04:22:06;97625.41;;;8.36;88.92
76732;BME280;65656;51.130;13.658;2023-04-01T04:26:09;97628.16;;;8.36;88.44
76732;BME280;65656;51.130;13.658;2023-04-01T04:30:12;97630.88;;;8.36;88.28
76732;BME280;65656;51.130;13.658;2023-04-01T04:34:14;97634.69;;;8.35;89.28
76732;BME280;65656;51.130;13.658;2023-04-01T04:38:17;97639.06;;;8.36;88.67
76732;BME280;65656;51.130;13.658;2023-04-01T04:42:18;97648.31;;;8.30;88.43
76732;BME280;65656;51.130;13.658;2023-04-01T04:46:21;97648.34;;;8.41;88.32
76732;BME280;65656;51.130;13.658;2023-04-01T04:50:24;97648.88;;;8.37;87.36
76732;BME280;65656;51.130;13.658;2023-04-01T04:54:26;97644.50;;;8.42;88.17
76732;BME280;65656;51.130;13.658;2023-04-01T04:58:27;97644.22;;;8.48;87.13
76732;BME280;65656;51.130;13.658;2023-04-01T05:02:29;97655.16;;;8.38;88.03
76732;BME280;65656;51.130;13.658;2023-04-01T05:06:32;97658.13;;;8.47;86.90
76732;BME280;65656;51.130;13.658;2023-04-01T05:10:34;97656.53;;;8.41;87.32
76732;BME280;65656;51.130;13.658;2023-04-01T05:14:35;97662.50;;;8.43;87.39
76732;BME280;65656;51.130;13.658;2023-04-01T05:18:37;97661.69;;;8.42;87.79
76732;BME280;65656;51.130;13.658;2023-04-01T05:22:40;97675.53;;;8.61;86.86
76732;BME280;65656;51.130;13.658;2023-04-01T05:26:42;97667.91;;;8.53;87.13
76732;BME280;65656;51.130;13.658;2023-04-01T05:30:44;97677.78;;;8.49;87.67
76732;BME280;65656;51.130;13.658;2023-04-01T05:34:45;97683.25;;;8.49;88.07
76732;BME280;65656;51.130;13.658;2023-04-01T05:38:49;97681.03;;;8.51;88.41
76732;BME280;65656;51.130;13.658;2023-04-01T05:42:50;97682.66;;;8.52;88.44
76732;BME280;65656;51.130;13.658;2023-04-01T05:46:52;97680.47;;;8.54;88.44
76732;BME280;65656;51.130;13.658;2023-04-01T05:50:53;97677.72;;;8.59;88.64
76732;BME280;65656;51.130;13.658;2023-04-01T05:54:56;97690.78;;;8.72;87.51
76732;BME280;65656;51.130;13.658;2023-04-01T05:58:57;97689.19;;;8.56;89.11
76732;BME280;65656;51.130;13.658;2023-04-01T06:02:59;97679.41;;;8.45;88.35
76732;BME280;65656;51.130;13.658;2023-04-01T06:07:05;97695.13;;;8.73;87.91
76732;BME280;65656;51.130;13.658;2023-04-01T06:11:23;97695.94;;;8.74;87.89
76732;BME280;65656;51.130;13.658;2023-04-01T06:15:34;97691.31;;;8.74;86.60
76732;BME280;65656;51.130;13.658;2023-04-01T06:19:42;97701.88;;;8.91;86.91
76732;BME280;65656;51.130;13.658;2023-04-01T06:23:57;97706.31;;;8.77;87.86
76732;BME280;65656;51.130;13.658;2023-04-01T06:28:16;97696.44;;;8.86;88.05
76732;BME280;65656;51.130;13.658;2023-04-01T06:32:40;97706.56;;;8.80;88.10
76732;BME280;65656;51.130;13.658;2023-04-01T06:36:57;97709.81;;;8.87;89.73
76732;BME280;65656;51.130;13.658;2023-04-01T06:41:26;97705.41;;;8.97;87.93
76732;BME280;65656;51.130;13.658;2023-04-01T06:45:37;97711.78;;;9.26;85.71
76732;BME280;65656;51.130;13.658;2023-04-01T06:49:44;97713.97;;;9.24;84.63
76732;BME280;65656;51.130;13.658;2023-04-01T06:53:54;97707.34;;;9.35;84.65
76732;BME280;65656;51.130;13.658;2023-04-01T06:57:58;97705.59;;;9.49;83.53
76732;BME280;65656;51.130;13.658;2023-04-01T07:02:06;97713.72;;;9.60;82.15
76732;BME280;65656;51.130;13.658;2023-04-01T07:06:23;97709.28;;;9.69;82.59
76732;BME280;65656;51.130;13.658;2023-04-01T07:10:33;97710.38;;;9.68;81.48
76732;BME280;65656;51.130;13.658;2023-04-01T07:14:37;97711.97;;;9.74;81.49
76732;BME280;65656;51.130;13.658;2023-04-01T07:18:46;97718.56;;;9.73;82.26
76732;BME280;65656;51.130;13.658;2023-04-01T07:22:50;97723.97;;;9.78;80.79
76732;BME280;65656;51.130;13.658;2023-04-01T07:26:54;97727.56;;;9.73;80.76
76732;BME280;65656;51.130;13.658;2023-04-01T07:31:04;97729.94;;;9.80;80.53
76732;BME280;65656;51.130;13.658;2023-04-01T07:35:16;97732.13;;;9.83;80.50
76732;BME280;65656;51.130;13.658;2023-04-01T07:39:30;97740.00;;;9.90;79.88
76732;BME280;65656;51.130;13.658;2023-04-01T07:43:50;97732.22;;;10.02;78.86
76732;BME280;65656;51.130;13.658;2023-04-01T07:48:02;97746.47;;;10.04;78.53
76732;BME280;65656;51.130;13.658;2023-04-01T07:52:15;97736.19;;;10.20;78.03
76732;BME280;65656;51.130;13.658;2023-04-01T07:56:22;97741.38;;;10.21;78.59
76732;BME280;65656;51.130;13.658;2023-04-01T08:00:33;97750.34;;;10.27;79.38
76732;BME280;65656;51.130;13.658;2023-04-01T08:04:49;97754.59;;;10.43;77.47
76732;BME280;65656;51.130;13.658;2023-04-01T08:09:02;97759.41;;;10.27;77.59
76732;BME280;65656;51.130;13.658;2023-04-01T08:13:13;97755.16;;;10.40;78.44
76732;BME280;65656;51.130;13.658;2023-04-01T08:17:20;97765.53;;;10.43;77.68
76732;BME280;65656;51.130;13.658;2023-04-01T08:21:28;97763.81;;;10.52;76.87
76732;BME280;65656;51.130;13.658;2023-04-01T08:25:37;97760.50;;;10.50;79.29
76732;BME280;65656;51.130;13.658;2023-04-01T08:29:42;97763.22;;;10.79;77.11
76732;BME280;65656;51.130;13.658;2023-04-01T08:33:48;97773.00;;;10.62;76.77
76732;BME280;65656;51.130;13.658;2023-04-01T08:37:55;97759.47;;;10.94;76.09
76732;BME280;65656;51.130;13.658;2023-04-01T08:42:26;97753.81;;;11.09;75.29
76732;BME280;65656;51.130;13.658;2023-04-01T08:47:05;97765.28;;;11.11;73.47
76732;BME280;65656;51.130;13.658;2023-04-01T08:51:42;97761.75;;;10.87;75.02
76732;BME280;65656;51.130;13.658;2023-04-01T08:56:00;97760.13;;;11.29;74.66
76732;BME280;65656;51.130;13.658;2023-04-01T09:00:15;97764.91;;;10.99;75.07
76732;BME280;65656;51.130;13.658;2023-04-01T09:04:27;97756.09;;;11.02;74.25
76732;BME280;65656;51.130;13.658;2023-04-01T09:08:42;97764.38;;;10.97;73.95
76732;BME280;65656;51.130;13.658;2023-04-01T09:13:01;97770.22;;;10.67;74.54
76732;BME280;65656;51.130;13.658;2023-04-01T09:21:56;97757.50;;;10.76;73.33
76732;BME280;65656;51.130;13.658;2023-04-01T09:26:11;97766.84;;;10.75;74.27
76732;BME280;65656;51.130;13.658;2023-04-01T09:30:45;97768.13;;;10.82;74.21
76732;BME280;65656;51.130;13.658;2023-04-01T09:34:54;97777.53;;;10.95;74.19
76732;BME280;65656;51.130;13.658;2023-04-01T09:38:59;97777.69;;;10.85;74.42
76732;BME280;65656;51.130;13.658;2023-04-01T09:43:22;97774.34;;;10.88;74.10
76732;BME280;65656;51.130;13.658;2023-04-01T09:47:41;97778.16;;;10.92;74.12
76732;BME280;65656;51.130;13.658;2023-04-01T09:51:53;97778.53;;;11.04;73.42
76732;BME280;65656;51.130;13.658;2023-04-01T09:56:19;97783.94;;;11.09;73.81
76732;BME280;65656;51.130;13.658;2023-04-01T10:00:39;97783.25;;;11.23;73.40
76732;BME280;65656;51.130;13.658;2023-04-01T10:05:07;97782.13;;;11.24;72.93
76732;BME280;65656;51.130;13.658;2023-04-01T10:14:22;97793.50;;;11.55;73.10
76732;BME280;65656;51.130;13.658;2023-04-01T10:18:52;97791.03;;;11.72;73.63
76732;BME280;65656;51.130;13.658;2023-04-01T10:23:11;97791.78;;;11.40;72.17
76732;BME280;65656;51.130;13.658;2023-04-01T10:32:10;97797.31;;;11.35;72.65
76732;BME280;65656;51.130;13.658;2023-04-01T10:36:40;97791.53;;;11.18;74.22
76732;BME280;65656;51.130;13.658;2023-04-01T10:40:59;97795.50;;;11.06;74.67
76732;BME280;65656;51.130;13.658;2023-04-01T10:50:25;97807.03;;;10.55;75.73
76732;BME280;65656;51.130;13.658;2023-04-01T10:54:43;97814.50;;;10.74;75.39
76732;BME280;65656;51.130;13.658;2023-04-01T10:59:02;97814.97;;;10.81;75.58
76732;BME280;65656;51.130;13.658;2023-04-01T11:13:12;97804.88;;;11.43;78.11
76732;BME280;65656;51.130;13.658;2023-04-01T11:22:30;97803.28;;;11.80;74.34
76732;BME280;65656;51.130;13.658;2023-04-01T11:26:47;97810.72;;;11.60;76.36
76732;BME280;65656;51.130;13.658;2023-04-01T11:31:04;97809.66;;;11.56;78.34
76732;BME280;65656;51.130;13.658;2023-04-01T11:35:50;97799.41;;;12.18;79.65
76732;BME280;65656;51.130;13.658;2023-04-01T11:40:02;97808.06;;;12.25;78.40
76732;BME280;65656;51.130;13.658;2023-04-01T11:44:16;97809.88;;;12.49;77.66
76732;BME280;65656;51.130;13.658;2023-04-01T11:48:27;97801.78;;;12.25;75.10
76732;BME280;65656;51.130;13.658;2023-04-01T11:52:47;97804.56;;;12.39;73.58
76732;BME280;65656;51.130;13.658;2023-04-01T11:57:03;97807.81;;;12.41;73.14
76732;BME280;65656;51.130;13.658;2023-04-01T12:01:32;97813.25;;;12.27;74.36
76732;BME280;65656;51.130;13.658;2023-04-01T12:05:43;97813.94;;;12.19;74.32
76732;BME280;65656;51.130;13.658;2023-04-01T12:09:49;97816.66;;;11.67;76.31
76732;BME280;65656;51.130;13.658;2023-04-01T12:14:02;97817.63;;;11.34;76.77
76732;BME280;65656;51.130;13.658;2023-04-01T12:18:15;97826.84;;;10.71;79.06
76732;BME280;65656;51.130;13.658;2023-04-01T12:22:24;97823.72;;;11.31;77.47
76732;BME280;65656;51.130;13.658;2023-04-01T12:26:46;97821.44;;;11.38;76.41
76732;BME280;65656;51.130;13.658;2023-04-01T12:31:02;97815.13;;;11.56;76.63
76732;BME280;65656;51.130;13.658;2023-04-01T12:35:17;97816.97;;;11.85;78.26
76732;BME280;65656;51.130;13.658;2023-04-01T12:39:43;97823.59;;;12.16;75.08
76732;BME280;65656;51.130;13.658;2023-04-01T12:44:10;97816.22;;;12.63;72.26
76732;BME280;65656;51.130;13.658;2023-04-01T12:48:37;97809.09;;;13.58;69.79
76732;BME280;65656;51.130;13.658;2023-04-01T12:52:52;97817.28;;;14.08;67.43
76732;BME280;65656;51.130;13.658;2023-04-01T12:57:11;97810.72;;;14.63;64.65
76732;BME280;65656;51.130;13.658;2023-04-01T13:06:19;97822.13;;;15.01;61.70
76732;BME280;65656;51.130;13.658;2023-04-01T13:10:36;97817.53;;;14.88;58.00
76732;BME280;65656;51.130;13.658;2023-04-01T13:15:04;97830.94;;;13.00;62.20
76732;BME280;65656;51.130;13.658;2023-04-01T13:19:17;97828.63;;;12.61;64.99
76732;BME280;65656;51.130;13.658;2023-04-01T13:23:30;97826.81;;;12.83;67.99
76732;BME280;65656;51.130;13.658;2023-04-01T13:27:38;97830.94;;;12.53;67.41
76732;BME280;65656;51.130;13.658;2023-04-01T13:31:51;97835.03;;;12.23;67.50
76732;BME280;65656;51.130;13.658;2023-04-01T13:36:08;97844.06;;;12.24;67.99
76732;BME280;65656;51.130;13.658;2023-04-01T13:40:29;97845.44;;;11.89;66.98
76732;BME280;65656;51.130;13.658;2023-04-01T13:44:38;97848.66;;;11.53;68.59
76732;BME280;65656;51.130;13.658;2023-04-01T13:49:07;97860.94;;;11.37;67.57
76732;BME280;65656;51.130;13.658;2023-04-01T13:53:30;97837.09;;;11.56;72.52
76732;BME280;65656;51.130;13.658;2023-04-01T13:57:51;97846.31;;;12.68;70.19
76732;BME280;65656;51.130;13.658;2023-04-01T14:02:13;97845.78;;;12.85;67.86
76732;BME280;65656;51.130;13.658;2023-04-01T14:06:28;97854.19;;;11.91;70.95
76732;BME280;65656;51.130;13.658;2023-04-01T14:10:37;97851.84;;;11.18;73.08
76732;BME280;65656;51.130;13.658;2023-04-01T14:14:53;97857.31;;;11.18;75.11
76732;BME280;65656;51.130;13.658;2023-04-01T14:19:06;97855.88;;;11.68;72.00
76732;BME280;65656;51.130;13.658;2023-04-01T14:23:23;97852.00;;;15.08;60.05
76732;BME280;65656;51.130;13.658;2023-04-01T14:27:45;97850.28;;;13.50;61.53
76732;BME280;65656;51.130;13.658;2023-04-01T14:32:05;97858.16;;;12.69;63.37
76732;BME280;65656;51.130;13.658;2023-04-01T14:36:25;97859.38;;;12.11;66.48
76732;BME280;65656;51.130;13.658;2023-04-01T14:40:38;97880.06;;;12.04;67.23
76732;BME280;65656;51.130;13.658;2023-04-01T14:45:18;97866.44;;;11.75;66.44
76732;BME280;65656;51.130;13.658;2023-04-01T14:49:33;97876.81;;;12.02;64.93
76732;BME280;65656;51.130;13.658;2023-04-01T14:53:40;97876.53;;;12.22;61.99
76732;BME280;65656;51.130;13.658;2023-04-01T14:57:58;97866.13;;;12.98;60.00
76732;BME280;65656;51.130;13.658;2023-04-01T15:02:03;97880.13;;;13.15;59.87
76732;BME280;65656;51.130;13.658;2023-04-01T15:06:35;97883.53;;;12.47;61.40
76732;BME280;65656;51.130;13.658;2023-04-01T15:11:10;97890.16;;;12.46;62.53
76732;BME280;65656;51.130;13.658;2023-04-01T15:15:22;97883.84;;;11.89;62.80
76732;BME280;65656;51.130;13.658;2023-04-01T15:19:39;97893.94;;;12.12;63.52
76732;BME280;65656;51.130;13.658;2023-04-01T15:24:00;97900.56;;;11.68;64.30
76732;BME280;65656;51.130;13.658;2023-04-01T15:28:10;97910.84;;;11.58;65.17
76732;BME280;65656;51.130;13.658;2023-04-01T15:32:21;97902.22;;;11.69;65.90
76732;BME280;65656;51.130;13.658;2023-04-01T15:36:35;97902.41;;;11.97;65.96
76732;BME280;65656;51.130;13.658;2023-04-01T15:40:45;97917.84;;;11.93;67.64
76732;BME280;65656;51.130;13.658;2023-04-01T15:45:14;97919.69;;;11.73;68.27
76732;BME280;65656;51.130;13.658;2023-04-01T15:49:27;97927.09;;;11.54;67.06
76732;BME280;65656;51.130;13.658;2023-04-01T15:53:45;97924.06;;;11.32;67.83
76732;BME280;65656;51.130;13.658;2023-04-01T15:58:01;97929.19;;;11.14;70.33
76732;BME280;65656;51.130;13.658;2023-04-01T16:02:15;97936.47;;;10.95;69.66
76732;BME280;65656;51.130;13.658;2023-04-01T16:06:57;97931.81;;;10.96;69.81
76732;BME280;65656;51.130;13.658;2023-04-01T16:11:11;97945.09;;;10.83;70.53
76732;BME280;65656;51.130;13.658;2023-04-01T16:15:21;97948.69;;;10.79;71.44
76732;BME280;65656;51.130;13.658;2023-04-01T16:19:33;97956.88;;;10.84;72.45
76732;BME280;65656;51.130;13.658;2023-04-01T16:23:42;97963.50;;;10.78;72.75
76732;BME280;65656;51.130;13.658;2023-04-01T16:27:53;97954.03;;;10.94;73.92
76732;BME280;65656;51.130;13.658;2023-04-01T16:32:15;97953.50;;;10.92;73.92
76732;BME280;65656;51.130;13.658;2023-04-01T16:36:27;97962.09;;;10.80;74.81
76732;BME280;65656;51.130;13.658;2023-04-01T16:40:38;97966.56;;;10.71;75.38
76732;BME280;65656;51.130;13.658;2023-04-01T16:44:50;97969.59;;;10.70;76.15
76732;BME280;65656;51.130;13.658;2023-04-01T16:49:00;97980.63;;;10.59;75.96
76732;BME280;65656;51.130;13.658;2023-04-01T16:53:14;97986.13;;;10.54;75.96
76732;BME280;65656;51.130;13.658;2023-04-01T16:57:21;97986.22;;;10.44;76.03
76732;BME280;65656;51.130;13.658;2023-04-01T17:01:28;97994.97;;;10.46;73.15
76732;BME280;65656;51.130;13.658;2023-04-01T17:05:40;97998.31;;;10.38;73.65
76732;BME280;65656;51.130;13.658;2023-04-01T17:10:08;98007.34;;;10.33;73.13
76732;BME280;65656;51.130;13.658;2023-04-01T17:14:23;98015.31;;;10.30;73.59
76732;BME280;65656;51.130;13.658;2023-04-01T17:18:32;98017.56;;;10.23;74.33
76732;BME280;65656;51.130;13.658;2023-04-01T17:22:40;98019.47;;;10.17;75.39
76732;BME280;65656;51.130;13.658;2023-04-01T17:26:52;98027.44;;;10.03;75.08
76732;BME280;65656;51.130;13.658;2023-04-01T17:31:03;98029.69;;;9.96;75.77
76732;BME280;65656;51.130;13.658;2023-04-01T17:35:12;98036.28;;;9.90;78.25
76732;BME280;65656;51.130;13.658;2023-04-01T17:39:28;98040.13;;;9.84;79.95
76732;BME280;65656;51.130;13.658;2023-04-01T17:43:41;98042.34;;;9.82;80.34
76732;BME280;65656;51.130;13.658;2023-04-01T17:47:52;98048.91;;;9.81;82.33
76732;BME280;65656;51.130;13.658;2023-04-01T17:51:59;98054.91;;;9.78;82.34
76732;BME280;65656;51.130;13.658;2023-04-01T17:56:11;98062.06;;;9.69;84.19
76732;BME280;65656;51.130;13.658;2023-04-01T18:00:24;98064.25;;;9.67;84.11
76732;BME280;65656;51.130;13.658;2023-04-01T18:04:36;98062.63;;;9.56;84.27
76732;BME280;65656;51.130;13.658;2023-04-01T18:08:51;98065.38;;;9.51;82.76
76732;BME280;65656;51.130;13.658;2023-04-01T18:13:18;98068.13;;;9.40;83.55
76732;BME280;65656;51.130;13.658;2023-04-01T18:17:38;98079.06;;;9.35;84.78
76732;BME280;65656;51.130;13.658;2023-04-01T18:21:47;98078.53;;;9.28;87.27
76732;BME280;65656;51.130;13.658;2023-04-01T18:25:52;98093.84;;;9.34;86.31
76732;BME280;65656;51.130;13.658;2023-04-01T18:29:59;98094.91;;;9.18;88.15
76732;BME280;65656;51.130;13.658;2023-04-01T18:34:07;98099.84;;;9.16;87.98
76732;BME280;65656;51.130;13.658;2023-04-01T18:38:16;98105.59;;;9.14;87.72
76732;BME280;65656;51.130;13.658;2023-04-01T18:42:30;98106.41;;;9.05;88.44
76732;BME280;65656;51.130;13.658;2023-04-01T18:46:39;98120.09;;;9.20;88.21
76732;BME280;65656;51.130;13.658;2023-04-01T18:50:51;98123.31;;;9.02;90.04
76732;BME280;65656;51.130;13.658;2023-04-01T18:55:21;98127.16;;;8.90;92.13
76732;BME280;65656;51.130;13.658;2023-04-01T18:59:26;98129.88;;;8.80;93.70
76732;BME280;65656;51.130;13.658;2023-04-01T19:03:37;98146.50;;;8.69;95.30
76732;BME280;65656;51.130;13.658;2023-04-01T19:07:46;98146.72;;;8.52;97.18
76732;BME280;65656;51.130;13.658;2023-04-01T19:11:59;98152.72;;;8.49;98.44
76732;BME280;65656;51.130;13.658;2023-04-01T19:16:12;98150.00;;;8.54;99.52
76732;BME280;65656;51.130;13.658;2023-04-01T19:20:23;98149.97;;;8.44;100.00
76732;BME280;65656;51.130;13.658;2023-04-01T19:24:53;98157.09;;;8.50;100.00
76732;BME280;65656;51.130;13.658;2023-04-01T19:29:06;98154.06;;;8.46;100.00
76732;BME280;65656;51.130;13.658;2023-04-01T19:33:25;98163.59;;;8.44;100.00
76732;BME280;65656;51.130;13.658;2023-04-01T19:37:33;98167.41;;;8.37;100.00
76732;BME280;65656;51.130;13.658;2023-04-01T19:41:45;98171.72;;;8.33;100.00
76732;BME280;65656;51.130;13.658;2023-04-01T19:45:51;98167.84;;;8.24;100.00
76732;BME280;65656;51.130;13.658;2023-04-01T19:50:03;98172.47;;;8.24;100.00
76732;BME280;65656;51.130;13.658;2023-04-01T19:54:16;98188.03;;;8.23;100.00
76732;BME280;65656;51.130;13.658;2023-04-01T19:58:26;98190.19;;;8.16;100.00
76732;BME280;65656;51.130;13.658;2023-04-01T20:02:39;98202.75;;;8.17;100.00
76732;BME280;65656;51.130;13.658;2023-04-01T20:06:51;98207.63;;;8.15;100.00
76732;BME280;65656;51.130;13.658;2023-04-01T20:11:04;98213.91;;;8.16;100.00
76732;BME280;65656;51.130;13.658;2023-04-01T20:15:22;98214.44;;;8.13;100.00
76732;BME280;65656;51.130;13.658;2023-04-01T20:19:28;98224.59;;;8.17;100.00
76732;BME280;65656;51.130;13.658;2023-04-01T20:23:38;98230.28;;;8.16;100.00
76732;BME280;65656;51.130;13.658;2023-04-01T20:27:44;98239.28;;;8.11;100.00
76732;BME280;65656;51.130;13.658;2023-04-01T20:31:58;98244.72;;;8.11;100.00
76732;BME280;65656;51.130;13.658;2023-04-01T20:36:06;98243.09;;;8.10;100.00
76732;BME280;65656;51.130;13.658;2023-04-01T20:40:25;98249.88;;;8.07;100.00
76732;BME280;65656;51.130;13.658;2023-04-01T20:44:32;98256.69;;;8.05;100.00
76732;BME280;65656;51.130;13.658;2023-04-01T20:49:01;98251.44;;;7.98;100.00
76732;BME280;65656;51.130;13.658;2023-04-01T20:53:12;98259.91;;;7.97;100.00
76732;BME280;65656;51.130;13.658;2023-04-01T20:57:20;98273.47;;;7.87;100.00
76732;BME280;65656;51.130;13.658;2023-04-01T21:01:32;98275.47;;;7.69;100.00
76732;BME280;65656;51.130;13.658;2023-04-01T21:10:24;98281.88;;;7.53;100.00
76732;BME280;65656;51.130;13.658;2023-04-01T21:14:42;98287.84;;;7.50;100.00
76732;BME280;65656;51.130;13.658;2023-04-01T21:18:52;98285.13;;;7.50;100.00
76732;BME280;65656;51.130;13.658;2023-04-01T21:23:13;98297.94;;;7.49;100.00
76732;BME280;65656;51.130;13.658;2023-04-01T21:27:29;98293.22;;;7.40;100.00
76732;BME280;65656;51.130;13.658;2023-04-01T21:31:49;98307.06;;;7.38;100.00
76732;BME280;65656;51.130;13.658;2023-04-01T21:36:01;98310.88;;;7.37;100.00
76732;BME280;65656;51.130;13.658;2023-04-01T21:40:19;98319.84;;;7.33;100.00
76732;BME280;65656;51.130;13.658;2023-04-01T21:44:36;98324.66;;;7.25;100.00
76732;BME280;65656;51.130;13.658;2023-04-01T21:48:51;98324.03;;;7.18;100.00
76732;BME280;65656;51.130;13.658;2023-04-01T21:58:05;98333.78;;;7.14;100.00
76732;BME280;65656;51.130;13.658;2023-04-01T22:02:45;98336.94;;;7.06;100.00
76732;BME280;65656;51.130;13.658;2023-04-01T22:06:56;98346.19;;;7.05;100.00
76732;BME280;65656;51.130;13.658;2023-04-01T22:11:06;98346.72;;;7.02;100.00
76732;BME280;65656;51.130;13.658;2023-04-01T22:15:16;98351.28;;;6.96;100.00
76732;BME280;65656;51.130;13.658;2023-04-01T22:19:24;98356.97;;;6.95;100.00
76732;BME280;65656;51.130;13.658;2023-04-01T22:23:31;98360.19;;;6.92;100.00
76732;BME280;65656;51.130;13.658;2023-04-01T22:27:41;98361.25;;;6.91;100.00
76732;BME280;65656;51.130;13.658;2023-04-01T22:31:49;98371.84;;;6.87;100.00
76732;BME280;65656;51.130;13.658;2023-04-01T22:35:59;98375.31;;;6.83;100.00
76732;BME280;65656;51.130;13.658;2023-04-01T22:44:24;98377.16;;;6.77;100.00
76732;BME280;65656;51.130;13.658;2023-04-01T22:48:35;98387.19;;;6.77;100.00
76732;BME280;65656;51.130;13.658;2023-04-01T22:52:42;98403.41;;;6.66;100.00
76732;BME280;65656;51.130;13.658;2023-04-01T22:56:46;98411.00;;;6.64;100.00